Time;durP1;ratioP1;P1;durP2;ratioP2;P2;SDS_P1;SDS_P2;PMS_P1;PMS_P2;Temp;Humidity;BMP_temperature;BMP_pressure;BME280_temperature;BME280_humidity;BME280_pressure;Samples;Min_cycle;Max_cycle;Signal;HPM_P1;HPM_P2
2021/07/28 00:01:28;;;;;;;22.40;19.90;;;;;;;;;;4990786;28;20219;-71
2021/07/28 00:04:14;;;;;;;29.00;22.50;;;;;;;;;;4990813;28;20215;-70
2021/07/28 00:06:58;;;;;;;22.77;20.03;;;;;;;;;;4991865;28;20723;-71
2021/07/28 00:09:43;;;;;;;25.13;21.33;;;;;;;;;;4994201;28;20258;-71
2021/07/28 00:12:28;;;;;;;23.43;21.07;;;;;;;;;;4975492;28;20209;-71
2021/07/28 00:15:13;;;;;;;24.13;21.53;;;;;;;;;;4980998;28;20699;-69
2021/07/28 00:18:03;;;;;;;24.47;21.33;;;;;;;;;;4975411;28;20204;-69
2021/07/28 00:23:51;;;;;;;25.47;21.50;;;;;;;;;;4994140;28;20246;-72
2021/07/28 00:26:36;;;;;;;25.37;21.60;;;;;;;;;;4993746;28;20242;-72
2021/07/28 00:29:21;;;;;;;23.03;20.17;;;;;;;;;;4991840;28;20235;-71
2021/07/28 00:32:06;;;;;;;24.13;21.37;;;;;;;;;;4993931;28;20215;-71
2021/07/28 00:34:52;;;;;;;26.90;22.13;;;;;;;;;;4993967;28;20251;-72
2021/07/28 00:37:37;;;;;;;27.30;22.47;;;;;;;;;;4992860;28;20294;-72
2021/07/28 00:40:22;;;;;;;23.40;20.50;;;;;;;;;;4991475;28;20211;-72
2021/07/28 00:43:11;;;;;;;27.50;22.00;;;;;;;;;;4993531;28;20267;-71
2021/07/28 00:45:56;;;;;;;23.97;21.40;;;;;;;;;;4992623;28;20229;-71
2021/07/28 00:48:41;;;;;;;21.63;18.90;;;;;;;;;;4994027;28;20227;-71
2021/07/28 00:51:27;;;;;;;20.87;18.73;;;;;;;;;;4993152;28;20219;-72
2021/07/28 00:54:13;;;;;;;31.00;27.58;;;;;;;;;;4992005;28;21005;-72
2021/07/28 00:56:59;;;;;;;24.43;21.07;;;;;;;;;;4993484;28;20219;-71
2021/07/28 00:59:45;;;;;;;24.77;21.37;;;;;;;;;;4992056;28;20771;-71
2021/07/28 01:02:30;;;;;;;25.40;22.13;;;;;;;;;;4993981;28;20212;-72
2021/07/28 01:05:15;;;;;;;22.07;19.57;;;;;;;;;;4993014;28;20207;-72
2021/07/28 01:08:01;;;;;;;27.73;21.47;;;;;;;;;;4990616;28;20226;-71
2021/07/28 01:10:46;;;;;;;24.63;20.50;;;;;;;;;;4993682;28;20270;-72
2021/07/28 01:13:34;;;;;;;22.03;19.73;;;;;;;;;;4993798;28;20231;-72
2021/07/28 01:16:21;;;;;;;22.30;20.20;;;;;;;;;;4991193;28;20297;-72
2021/07/28 01:19:08;;;;;;;24.77;22.23;;;;;;;;;;4992098;28;20238;-72
2021/07/28 01:21:53;;;;;;;19.87;17.93;;;;;;;;;;4992402;28;20311;-72
2021/07/28 01:24:39;;;;;;;18.83;17.03;;;;;;;;;;4992822;28;20207;-72
2021/07/28 01:27:25;;;;;;;24.47;21.87;;;;;;;;;;4991906;28;20255;-72
2021/07/28 01:30:16;;;;;;;23.97;20.37;;;;;;;;;;4992693;28;20318;-72
2021/07/28 01:33:01;;;;;;;21.33;18.90;;;;;;;;;;4991855;28;20315;-71
2021/07/28 01:35:46;;;;;;;24.63;21.67;;;;;;;;;;4991018;28;20215;-71
2021/07/28 01:38:32;;;;;;;26.57;21.30;;;;;;;;;;4973819;28;20236;-71
2021/07/28 01:41:18;;;;;;;26.90;23.30;;;;;;;;;;4979874;28;20215;-72
2021/07/28 01:44:05;;;;;;;25.97;22.40;;;;;;;;;;4993095;28;20223;-72
2021/07/28 01:46:49;;;;;;;27.50;23.50;;;;;;;;;;4990921;28;20218;-72
2021/07/28 01:49:34;;;;;;;22.10;19.80;;;;;;;;;;4992167;28;20742;-71
2021/07/28 01:52:19;;;;;;;25.90;23.03;;;;;;;;;;4992209;28;20231;-72
2021/07/28 01:55:06;;;;;;;25.80;22.53;;;;;;;;;;4992358;28;20796;-72
2021/07/28 01:57:53;;;;;;;24.13;21.53;;;;;;;;;;4973033;28;20351;-72
2021/07/28 02:00:38;;;;;;;28.03;23.23;;;;;;;;;;4985492;28;20222;-72
2021/07/28 02:03:24;;;;;;;22.43;20.23;;;;;;;;;;4992037;28;20231;-72
2021/07/28 02:06:09;;;;;;;22.30;20.03;;;;;;;;;;4990987;28;20215;-71
2021/07/28 02:08:54;;;;;;;22.37;19.90;;;;;;;;;;4992803;28;20282;-72
2021/07/28 02:11:39;;;;;;;22.13;19.77;;;;;;;;;;4992114;28;20270;-72
2021/07/28 02:14:25;;;;;;;20.30;18.20;;;;;;;;;;4992517;28;20894;-72
2021/07/28 02:17:10;;;;;;;19.97;17.90;;;;;;;;;;4991060;28;20731;-72
2021/07/28 02:19:55;;;;;;;18.17;16.47;;;;;;;;;;4991552;28;20335;-72
2021/07/28 02:22:39;;;;;;;19.33;17.53;;;;;;;;;;4992307;28;20300;-72
2021/07/28 02:25:24;;;;;;;16.20;14.70;;;;;;;;;;4991818;28;20207;-72
2021/07/28 02:31:06;;;;;;;20.77;18.57;;;;;;;;;;4989900;28;20258;-75
2021/07/28 02:33:51;;;;;;;20.33;18.23;;;;;;;;;;4991317;28;20227;-75
2021/07/28 02:36:36;;;;;;;19.27;17.50;;;;;;;;;;4990928;28;20850;-75
2021/07/28 02:39:22;;;;;;;18.27;16.40;;;;;;;;;;4991296;28;20363;-75
2021/07/28 02:42:07;;;;;;;23.63;20.33;;;;;;;;;;4992220;28;20283;-75
2021/07/28 02:44:52;;;;;;;17.87;16.20;;;;;;;;;;4992133;28;20191;-74
2021/07/28 02:47:39;;;;;;;21.10;18.90;;;;;;;;;;4991462;28;20587;-75
2021/07/28 02:50:24;;;;;;;19.43;17.53;;;;;;;;;;4972241;28;20224;-75
2021/07/28 02:53:09;;;;;;;19.83;17.73;;;;;;;;;;4972571;28;20341;-74
2021/07/28 02:55:54;;;;;;;18.93;16.93;;;;;;;;;;4978120;28;20227;-75
2021/07/28 02:58:39;;;;;;;19.60;17.07;;;;;;;;;;4991869;28;20242;-74
2021/07/28 03:01:24;;;;;;;19.70;15.80;;;;;;;;;;4990671;28;20345;-75
2021/07/28 03:04:10;;;;;;;23.53;18.30;;;;;;;;;;4991756;28;20202;-74
2021/07/28 03:06:55;;;;;;;22.60;18.87;;;;;;;;;;4990953;28;20210;-75
2021/07/28 03:09:40;;;;;;;20.33;18.17;;;;;;;;;;4991605;28;20250;-75
2021/07/28 03:12:25;;;;;;;22.23;18.63;;;;;;;;;;4990613;28;20215;-75
2021/07/28 03:15:09;;;;;;;20.40;18.30;;;;;;;;;;4972089;28;20740;-75
2021/07/28 03:17:55;;;;;;;19.63;16.93;;;;;;;;;;4977481;28;20339;-75
2021/07/28 03:20:41;;;;;;;21.40;18.03;;;;;;;;;;4990684;28;20234;-75
2021/07/28 03:23:26;;;;;;;22.90;18.07;;;;;;;;;;4991372;28;20771;-74
2021/07/28 03:26:11;;;;;;;23.80;18.20;;;;;;;;;;4990034;28;20211;-75
2021/07/28 03:28:56;;;;;;;22.00;17.97;;;;;;;;;;4991300;28;20231;-75
2021/07/28 03:31:41;;;;;;;24.07;19.07;;;;;;;;;;4989973;28;20226;-74
2021/07/28 03:34:26;;;;;;;23.97;19.17;;;;;;;;;;4990788;28;20227;-75
2021/07/28 03:37:12;;;;;;;23.57;19.00;;;;;;;;;;4990720;28;20207;-74
2021/07/28 03:40:01;;;;;;;21.87;19.33;;;;;;;;;;4990369;28;20227;-75
2021/07/28 03:42:47;;;;;;;20.40;18.30;;;;;;;;;;4990838;28;20199;-75
2021/07/28 03:45:33;;;;;;;21.10;18.93;;;;;;;;;;4990166;28;20402;-75
2021/07/28 03:48:18;;;;;;;22.67;20.27;;;;;;;;;;4990444;28;20883;-75
2021/07/28 03:51:03;;;;;;;19.97;17.70;;;;;;;;;;4990435;28;20747;-75
2021/07/28 03:53:49;;;;;;;24.37;20.47;;;;;;;;;;4990231;28;20338;-74
2021/07/28 03:56:36;;;;;;;23.03;20.27;;;;;;;;;;4971240;28;20207;-76
2021/07/28 03:59:21;;;;;;;24.92;22.35;;;;;;;;;;4981343;28;20466;-75
2021/07/28 04:02:06;;;;;;;20.77;18.33;;;;;;;;;;4991194;28;20222;-76
2021/07/28 04:04:51;;;;;;;16.80;15.23;;;;;;;;;;4991309;28;20721;-75
2021/07/28 04:07:36;;;;;;;18.77;16.87;;;;;;;;;;4990802;28;20258;-76
2021/07/28 04:10:22;;;;;;;16.47;14.77;;;;;;;;;;4990744;28;20787;-74
2021/07/28 04:13:07;;;;;;;16.80;15.00;;;;;;;;;;4991372;28;20211;-75
2021/07/28 04:15:52;;;;;;;15.90;14.30;;;;;;;;;;4990182;28;20235;-75
2021/07/28 04:18:37;;;;;;;17.03;15.27;;;;;;;;;;4990944;28;20207;-74
2021/07/28 04:21:22;;;;;;;16.43;14.73;;;;;;;;;;4991208;28;20722;-74
2021/07/28 04:24:07;;;;;;;15.63;14.13;;;;;;;;;;4990914;28;20215;-75
2021/07/28 04:26:53;;;;;;;18.87;16.40;;;;;;;;;;4990295;28;20216;-74
2021/07/28 04:29:38;;;;;;;15.07;13.73;;;;;;;;;;4990951;28;20608;-74
2021/07/28 04:32:23;;;;;;;16.90;15.10;;;;;;;;;;4990868;28;20215;-75
2021/07/28 04:35:08;;;;;;;17.27;15.57;;;;;;;;;;4991084;28;20302;-74
2021/07/28 04:37:54;;;;;;;17.23;14.80;;;;;;;;;;4990376;28;20220;-75
2021/07/28 04:40:39;;;;;;;16.43;14.93;;;;;;;;;;4990856;28;20239;-74
2021/07/28 04:43:25;;;;;;;18.00;16.30;;;;;;;;;;4990911;28;20687;-75
2021/07/28 04:46:10;;;;;;;19.77;17.67;;;;;;;;;;4990104;28;20204;-75
2021/07/28 04:48:55;;;;;;;18.97;17.17;;;;;;;;;;4990806;28;20304;-74
2021/07/28 04:51:40;;;;;;;18.87;17.07;;;;;;;;;;4990425;28;20215;-74
2021/07/28 04:54:25;;;;;;;19.47;17.23;;;;;;;;;;4992565;28;20223;-74
2021/07/28 04:57:10;;;;;;;18.00;16.23;;;;;;;;;;4993704;28;20255;-74
2021/07/28 04:59:56;;;;;;;20.88;18.77;;;;;;;;;;4993867;28;20479;-74
2021/07/28 05:02:41;;;;;;;20.37;18.27;;;;;;;;;;4993983;28;20578;-75
2021/07/28 05:05:26;;;;;;;20.27;18.10;;;;;;;;;;4993999;28;20203;-75
2021/07/28 05:08:11;;;;;;;18.40;16.57;;;;;;;;;;4994050;28;20681;-74
2021/07/28 05:10:56;;;;;;;16.43;14.93;;;;;;;;;;4994029;28;20216;-75
2021/07/28 05:13:41;;;;;;;17.00;15.40;;;;;;;;;;4982636;28;20215;-74
2021/07/28 05:16:27;;;;;;;16.53;14.83;;;;;;;;;;4986113;28;20301;-75
2021/07/28 05:19:12;;;;;;;16.07;14.67;;;;;;;;;;4981890;28;20227;-75
2021/07/28 05:21:57;;;;;;;18.43;16.63;;;;;;;;;;4992050;28;20247;-74
2021/07/28 05:24:42;;;;;;;17.93;16.13;;;;;;;;;;5001719;28;20219;-75
2021/07/28 05:27:28;;;;;;;18.87;16.73;;;;;;;;;;5011627;28;20210;-74
2021/07/28 05:30:14;;;;;;;18.13;16.53;;;;;;;;;;5006663;28;20361;-75
2021/07/28 05:33:00;;;;;;;19.03;17.03;;;;;;;;;;4990039;28;20215;-74
2021/07/28 05:35:48;;;;;;;17.83;16.03;;;;;;;;;;4973291;28;20577;-73
2021/07/28 05:38:33;;;;;;;18.27;16.67;;;;;;;;;;4974028;28;20704;-75
2021/07/28 05:41:18;;;;;;;20.55;18.65;;;;;;;;;;4972817;28;20797;-74
2021/07/28 05:44:07;;;;;;;17.80;16.10;;;;;;;;;;4987760;28;20226;-75
2021/07/28 05:46:52;;;;;;;17.10;15.60;;;;;;;;;;4992566;28;20263;-74
2021/07/28 05:49:39;;;;;;;19.03;17.10;;;;;;;;;;5007761;28;20226;-73
2021/07/28 05:52:24;;;;;;;17.50;15.90;;;;;;;;;;5012489;28;20190;-73
2021/07/28 05:55:10;;;;;;;19.17;17.23;;;;;;;;;;5012436;28;20227;-74
2021/07/28 05:57:55;;;;;;;18.70;17.10;;;;;;;;;;4994521;28;20342;-73
2021/07/28 06:00:40;;;;;;;18.60;16.90;;;;;;;;;;4991745;28;21088;-73
2021/07/28 06:03:25;;;;;;;21.02;19.13;;;;;;;;;;4992190;28;20396;-76
2021/07/28 06:06:11;;;;;;;17.87;16.33;;;;;;;;;;4990826;28;20223;-77
2021/07/28 06:08:56;;;;;;;20.50;18.53;;;;;;;;;;4992634;28;20235;-77
2021/07/28 06:11:41;;;;;;;17.27;15.87;;;;;;;;;;4992854;28;20207;-76
2021/07/28 06:14:26;;;;;;;19.90;18.20;;;;;;;;;;4992141;28;20259;-76
2021/07/28 06:17:11;;;;;;;19.10;17.23;;;;;;;;;;4991993;28;20702;-75
2021/07/28 06:19:57;;;;;;;19.87;18.13;;;;;;;;;;4991945;28;20222;-75
2021/07/28 06:22:43;;;;;;;21.67;19.53;;;;;;;;;;4992489;28;20284;-76
2021/07/28 06:25:28;;;;;;;18.30;16.87;;;;;;;;;;4991668;28;20734;-76
2021/07/28 06:28:13;;;;;;;19.97;18.07;;;;;;;;;;4992443;28;20313;-76
2021/07/28 06:30:58;;;;;;;21.27;19.47;;;;;;;;;;4992436;28;20335;-75
2021/07/28 06:33:42;;;;;;;19.07;17.27;;;;;;;;;;4991830;28;20222;-76
2021/07/28 06:36:27;;;;;;;20.97;18.90;;;;;;;;;;4991384;28;20708;-76
2021/07/28 06:39:14;;;;;;;20.13;18.33;;;;;;;;;;4992875;28;20227;-76
2021/07/28 06:41:59;;;;;;;22.23;20.07;;;;;;;;;;4991492;28;20215;-75
2021/07/28 06:44:45;;;;;;;21.47;19.57;;;;;;;;;;4991482;28;20262;-75
2021/07/28 06:47:30;;;;;;;21.57;19.77;;;;;;;;;;4986294;28;20210;-75
2021/07/28 06:50:15;;;;;;;22.13;20.13;;;;;;;;;;4992385;28;20350;-76
2021/07/28 06:53:00;;;;;;;21.03;19.23;;;;;;;;;;4983394;28;20212;-75
2021/07/28 06:55:46;;;;;;;19.13;17.53;;;;;;;;;;4990011;28;20313;-76
2021/07/28 06:58:31;;;;;;;18.97;17.33;;;;;;;;;;4990939;28;20203;-75
2021/07/28 07:01:16;;;;;;;19.37;17.73;;;;;;;;;;4990814;28;20212;-75
2021/07/28 07:04:02;;;;;;;18.90;17.20;;;;;;;;;;4989501;28;20281;-76
2021/07/28 07:06:47;;;;;;;17.67;16.13;;;;;;;;;;4987434;28;20243;-76
2021/07/28 07:09:32;;;;;;;17.77;16.20;;;;;;;;;;4990316;28;20898;-75
2021/07/28 07:12:18;;;;;;;16.67;15.27;;;;;;;;;;4974569;28;20212;-76
2021/07/28 07:15:04;;;;;;;16.60;15.17;;;;;;;;;;4979885;28;20313;-75
2021/07/28 07:17:52;;;;;;;15.73;14.43;;;;;;;;;;4990532;28;20210;-76
2021/07/28 07:20:37;;;;;;;15.63;14.33;;;;;;;;;;4991689;28;20590;-75
2021/07/28 07:23:22;;;;;;;15.90;14.40;;;;;;;;;;4986598;28;20347;-76
2021/07/28 07:26:07;;;;;;;14.67;13.37;;;;;;;;;;4990956;28;20570;-76
2021/07/28 07:28:53;;;;;;;14.50;13.20;;;;;;;;;;4990405;28;20242;-73
2021/07/28 07:31:38;;;;;;;13.43;12.27;;;;;;;;;;4989785;28;20219;-74
2021/07/28 07:34:23;;;;;;;11.83;10.83;;;;;;;;;;4988421;28;20350;-74
2021/07/28 07:37:08;;;;;;;12.07;11.00;;;;;;;;;;4990439;28;20227;-73
2021/07/28 07:39:53;;;;;;;12.47;11.17;;;;;;;;;;4990805;28;20255;-74
2021/07/28 07:42:38;;;;;;;11.27;10.17;;;;;;;;;;4992529;28;20284;-74
2021/07/28 07:45:24;;;;;;;12.37;11.27;;;;;;;;;;4991300;28;20207;-74
2021/07/28 07:48:09;;;;;;;11.53;10.47;;;;;;;;;;4991585;28;20403;-73
2021/07/28 07:50:54;;;;;;;11.30;10.23;;;;;;;;;;4991497;28;20297;-75
2021/07/28 07:53:40;;;;;;;9.87;8.83;;;;;;;;;;4989709;28;20211;-75
2021/07/28 07:56:25;;;;;;;9.63;8.80;;;;;;;;;;4989293;28;20318;-75
2021/07/28 07:59:10;;;;;;;9.87;8.97;;;;;;;;;;4990661;28;20223;-76
2021/07/28 08:01:56;;;;;;;9.57;8.47;;;;;;;;;;4990330;28;20214;-75
2021/07/28 08:04:41;;;;;;;8.97;8.17;;;;;;;;;;4990130;28;20750;-74
2021/07/28 08:07:26;;;;;;;9.93;9.13;;;;;;;;;;4989546;28;20413;-75
2021/07/28 08:10:11;;;;;;;8.60;7.90;;;;;;;;;;4990886;28;20301;-74
2021/07/28 08:12:56;;;;;;;7.93;7.30;;;;;;;;;;4990039;28;20695;-75
2021/07/28 08:15:41;;;;;;;7.67;7.07;;;;;;;;;;4986601;28;20226;-74
2021/07/28 08:18:28;;;;;;;6.50;5.97;;;;;;;;;;4975325;28;20567;-74
2021/07/28 08:21:13;;;;;;;7.77;6.20;;;;;;;;;;4989807;28;20263;-74
2021/07/28 08:23:58;;;;;;;7.43;6.73;;;;;;;;;;4989768;28;20253;-75
2021/07/28 08:26:43;;;;;;;6.37;5.67;;;;;;;;;;4989127;28;20209;-75
2021/07/28 08:29:28;;;;;;;6.07;5.30;;;;;;;;;;5018242;23;20253;-72
2021/07/28 08:32:13;;;;;;;6.60;5.10;;;;;;;;;;4948511;29;20216;-72
2021/07/28 08:34:59;;;;;;;6.03;5.43;;;;;;;;;;4954520;29;20223;-72
2021/07/28 08:37:44;;;;;;;6.67;5.07;;;;;;;;;;4945203;29;20212;-70
2021/07/28 08:40:29;;;;;;;5.70;5.13;;;;;;;;;;4949376;28;20235;-72
2021/07/28 08:43:14;;;;;;;6.53;5.13;;;;;;;;;;4936538;29;20215;-72
2021/07/28 08:46:00;;;;;;;6.83;5.20;;;;;;;;;;4952877;29;20725;-72
2021/07/28 08:48:47;;;;;;;5.67;5.07;;;;;;;;;;4951709;28;20335;-72
2021/07/28 08:51:33;;;;;;;5.40;4.90;;;;;;;;;;4966256;28;20234;-72
2021/07/28 08:54:19;;;;;;;5.37;4.90;;;;;;;;;;4935909;29;20366;-72
2021/07/28 08:57:04;;;;;;;5.33;4.83;;;;;;;;;;4935533;29;20236;-72
2021/07/28 08:59:53;;;;;;;6.87;4.87;;;;;;;;;;4935516;29;20231;-71
2021/07/28 09:02:40;;;;;;;5.13;4.47;;;;;;;;;;4935850;29;20230;-72
2021/07/28 09:05:25;;;;;;;5.07;3.80;;;;;;;;;;4935922;29;20726;-72
2021/07/28 09:08:31;;;;;;;8.80;4.00;;;;;;;;;;4935298;29;20263;-72
2021/07/28 09:11:20;;;;;;;5.25;4.35;;;;;;;;;;4934552;29;20458;-72
2021/07/28 09:14:16;;;;;;;4.83;4.13;;;;;;;;;;4935926;29;20288;-75
2021/07/28 09:17:12;;;;;;;4.20;3.67;;;;;;;;;;4934827;29;20370;-73
2021/07/28 09:19:58;;;;;;;4.73;3.80;;;;;;;;;;4935691;29;20234;-72
2021/07/28 09:22:43;;;;;;;4.70;4.30;;;;;;;;;;4951026;29;20336;-71
2021/07/28 09:25:32;;;;;;;6.63;4.20;;;;;;;;;;4954772;29;20209;-72
2021/07/28 09:28:22;;;;;;;6.13;4.10;;;;;;;;;;4954744;29;20276;-72
2021/07/28 09:31:08;;;;;;;4.30;3.93;;;;;;;;;;4948841;29;20347;-72
2021/07/28 09:34:06;;;;;;;5.10;4.10;;;;;;;;;;4949891;29;20224;-72
2021/07/28 09:36:51;;;;;;;7.40;4.07;;;;;;;;;;4948436;29;20246;-71
2021/07/28 09:39:38;;;;;;;4.20;3.80;;;;;;;;;;4948357;28;20756;-72
2021/07/28 09:42:26;;;;;;;4.57;3.30;;;;;;;;;;4939933;29;20304;-71
2021/07/28 09:45:13;;;;;;;4.10;3.70;;;;;;;;;;4940305;29;20213;-71
2021/07/28 09:47:58;;;;;;;4.17;3.43;;;;;;;;;;4940194;29;20213;-71
2021/07/28 09:50:43;;;;;;;4.00;3.70;;;;;;;;;;4944522;29;20237;-72
2021/07/28 09:53:29;;;;;;;6.63;3.43;;;;;;;;;;4954285;29;20213;-73
2021/07/28 09:56:22;;;;;;;4.97;3.30;;;;;;;;;;4951972;29;20249;-70
2021/07/28 09:59:07;;;;;;;4.73;3.40;;;;;;;;;;4954136;29;20209;-72
2021/07/28 10:01:54;;;;;;;4.03;3.47;;;;;;;;;;4952945;29;20572;-72
2021/07/28 10:04:39;;;;;;;5.47;3.40;;;;;;;;;;4952410;29;20588;-74
2021/07/28 10:07:24;;;;;;;3.77;3.40;;;;;;;;;;4953239;29;20212;-72
2021/07/28 10:10:11;;;;;;;3.87;3.50;;;;;;;;;;4953926;28;20228;-74
2021/07/28 10:12:56;;;;;;;3.95;3.65;;;;;;;;;;4952433;29;20771;-74
2021/07/28 10:15:41;;;;;;;3.23;2.93;;;;;;;;;;4953612;29;20208;-72
2021/07/28 10:18:27;;;;;;;3.97;3.60;;;;;;;;;;4952871;29;20212;-74
2021/07/28 10:21:12;;;;;;;4.17;3.73;;;;;;;;;;4952936;28;20316;-74
2021/07/28 10:23:57;;;;;;;4.50;3.40;;;;;;;;;;4953576;29;20596;-74
2021/07/28 10:26:44;;;;;;;7.37;3.70;;;;;;;;;;4947830;29;20577;-72
2021/07/28 10:29:29;;;;;;;4.20;3.80;;;;;;;;;;4935788;28;20412;-74
2021/07/28 10:32:30;;;;;;;5.43;3.50;;;;;;;;;;4953435;29;20773;-72
2021/07/28 10:35:24;;;;;;;7.97;4.27;;;;;;;;;;4953266;29;20332;-74
2021/07/28 10:38:20;;;;;;;4.17;3.57;;;;;;;;;;4952846;29;20201;-73
2021/07/28 10:41:07;;;;;;;5.00;3.50;;;;;;;;;;4952159;29;20606;-74
2021/07/28 10:44:11;;;;;;;5.70;3.93;;;;;;;;;;4952164;29;20217;-73
2021/07/28 10:47:11;;;;;;;4.30;3.53;;;;;;;;;;4949396;29;20304;-73
2021/07/28 10:49:56;;;;;;;3.92;3.40;;;;;;;;;;4949845;28;20523;-72
2021/07/28 10:52:47;;;;;;;4.70;3.10;;;;;;;;;;4933850;29;20228;-73
2021/07/28 10:55:33;;;;;;;4.57;3.07;;;;;;;;;;4933959;29;20222;-74
2021/07/28 10:58:27;;;;;;;4.67;3.30;;;;;;;;;;4933893;29;20213;-74
2021/07/28 11:01:12;;;;;;;3.40;3.07;;;;;;;;;;4943202;29;20366;-73
2021/07/28 11:04:23;;;;;;;4.07;3.40;;;;;;;;;;4946819;29;20216;-73
2021/07/28 11:07:08;;;;;;;4.77;3.33;;;;;;;;;;4951239;29;20697;-74
2021/07/28 11:10:04;;;;;;;3.90;2.97;;;;;;;;;;4950748;29;20244;-74
2021/07/28 11:12:50;;;;;;;5.33;3.00;;;;;;;;;;4950366;29;20870;-74
2021/07/28 11:15:35;;;;;;;4.13;3.20;;;;;;;;;;4950859;29;20811;-73
2021/07/28 11:18:31;;;;;;;3.67;3.00;;;;;;;;;;4951559;29;20518;-73
2021/07/28 11:21:18;;;;;;;2.90;2.70;;;;;;;;;;4937490;29;20311;-73
2021/07/28 11:24:05;;;;;;;3.60;3.00;;;;;;;;;;4952694;29;20213;-72
2021/07/28 11:26:52;;;;;;;4.83;3.10;;;;;;;;;;4950912;29;20209;-73
2021/07/28 11:29:37;;;;;;;5.10;3.20;;;;;;;;;;4951382;28;20237;-73
2021/07/28 11:32:23;;;;;;;5.33;3.20;;;;;;;;;;4951119;29;20221;-74
2021/07/28 11:35:08;;;;;;;3.33;3.03;;;;;;;;;;4952288;29;20478;-73
2021/07/28 11:37:53;;;;;;;4.17;2.83;;;;;;;;;;4949765;29;20224;-74
2021/07/28 11:40:47;;;;;;;5.13;2.90;;;;;;;;;;4951310;28;20266;-73
2021/07/28 11:43:34;;;;;;;4.97;2.97;;;;;;;;;;4951175;29;20216;-73
2021/07/28 11:46:21;;;;;;;5.23;3.17;;;;;;;;;;4949005;29;20870;-74
2021/07/28 11:49:06;;;;;;;4.43;2.90;;;;;;;;;;4949876;29;20217;-74
2021/07/28 11:51:52;;;;;;;3.42;3.10;;;;;;;;;;4947746;29;20441;-74
2021/07/28 11:54:37;;;;;;;5.63;2.90;;;;;;;;;;4951206;29;20201;-74
2021/07/28 11:57:21;;;;;;;5.17;2.97;;;;;;;;;;4949419;29;21498;-75
2021/07/28 12:00:25;;;;;;;4.03;2.73;;;;;;;;;;4946931;28;20353;-74
2021/07/28 12:03:25;;;;;;;4.07;2.80;;;;;;;;;;4950266;28;20337;-74
2021/07/28 12:06:10;;;;;;;5.97;3.37;;;;;;;;;;4951597;29;20209;-74
2021/07/28 12:09:05;;;;;;;5.77;3.30;;;;;;;;;;4949743;29;20210;-74
2021/07/28 12:11:51;;;;;;;4.80;3.27;;;;;;;;;;4949018;29;20214;-73
2021/07/28 12:14:39;;;;;;;5.32;3.05;;;;;;;;;;4948925;29;20427;-73
2021/07/28 12:17:25;;;;;;;2.80;2.60;;;;;;;;;;4951144;29;20349;-73
2021/07/28 12:20:14;;;;;;;6.23;3.03;;;;;;;;;;4949914;28;20236;-73
2021/07/28 12:22:59;;;;;;;5.57;2.83;;;;;;;;;;4955121;29;20768;-73
2021/07/28 12:25:45;;;;;;;5.03;3.03;;;;;;;;;;4955666;29;20337;-73
2021/07/28 12:28:49;;;;;;;4.87;3.00;;;;;;;;;;4955604;29;20246;-73
2021/07/28 12:31:34;;;;;;;3.40;2.70;;;;;;;;;;4955611;28;20233;-73
2021/07/28 12:34:19;;;;;;;5.40;3.33;;;;;;;;;;4955537;29;20232;-74
2021/07/28 12:37:19;;;;;;;3.50;3.20;;;;;;;;;;4952039;29;20224;-74
2021/07/28 12:40:04;;;;;;;5.73;3.10;;;;;;;;;;4951473;28;20231;-73
2021/07/28 12:42:50;;;;;;;5.63;3.27;;;;;;;;;;4951177;29;20356;-73
2021/07/28 12:45:35;;;;;;;4.70;3.57;;;;;;;;;;4953498;29;20234;-73
2021/07/28 12:48:21;;;;;;;4.83;3.00;;;;;;;;;;4952664;29;20575;-74
2021/07/28 12:51:07;;;;;;;4.83;2.90;;;;;;;;;;4936661;29;20245;-74
2021/07/28 12:53:53;;;;;;;5.65;3.38;;;;;;;;;;4946966;29;20953;-75
2021/07/28 12:56:38;;;;;;;4.20;3.00;;;;;;;;;;4954523;29;20329;-74
2021/07/28 12:59:23;;;;;;;6.27;3.17;;;;;;;;;;4955289;29;20262;-75
2021/07/28 13:02:08;;;;;;;4.93;3.60;;;;;;;;;;4954180;29;20712;-75
2021/07/28 13:04:53;;;;;;;4.97;3.50;;;;;;;;;;4952453;29;20573;-75
2021/07/28 13:07:43;;;;;;;3.87;3.13;;;;;;;;;;4945901;29;20208;-75
2021/07/28 13:10:29;;;;;;;7.27;3.43;;;;;;;;;;4947706;29;20300;-74
2021/07/28 13:13:15;;;;;;;4.07;3.20;;;;;;;;;;4950442;29;20750;-75
2021/07/28 13:16:00;;;;;;;4.00;3.40;;;;;;;;;;4948519;29;20843;-75
2021/07/28 13:18:45;;;;;;;3.83;3.20;;;;;;;;;;4935349;29;20758;-75
2021/07/28 13:21:31;;;;;;;6.00;3.53;;;;;;;;;;4942040;29;20609;-72
2021/07/28 13:24:19;;;;;;;6.10;3.37;;;;;;;;;;4954716;29;20208;-74
2021/07/28 13:27:05;;;;;;;5.13;3.43;;;;;;;;;;4944424;29;20493;-74
2021/07/28 13:29:50;;;;;;;4.87;3.83;;;;;;;;;;4952875;28;20369;-75
2021/07/28 13:32:35;;;;;;;3.70;3.40;;;;;;;;;;4951980;29;20567;-74
2021/07/28 13:35:21;;;;;;;3.80;3.50;;;;;;;;;;4954198;29;20296;-75
2021/07/28 13:38:06;;;;;;;4.17;3.70;;;;;;;;;;4943381;29;20234;-75
2021/07/28 13:40:51;;;;;;;3.80;3.50;;;;;;;;;;4935262;29;20229;-75
2021/07/28 13:43:37;;;;;;;4.80;3.80;;;;;;;;;;4937160;29;20305;-75
2021/07/28 13:46:22;;;;;;;4.07;3.30;;;;;;;;;;4941017;29;20736;-75
2021/07/28 13:49:08;;;;;;;3.70;3.03;;;;;;;;;;4952783;29;20650;-75
2021/07/28 13:51:53;;;;;;;3.50;3.20;;;;;;;;;;4935239;29;20717;-75
2021/07/28 13:54:38;;;;;;;3.13;2.73;;;;;;;;;;4935108;29;20217;-75
2021/07/28 13:57:23;;;;;;;3.30;3.00;;;;;;;;;;4951793;28;20221;-75
2021/07/28 14:00:11;;;;;;;3.17;2.87;;;;;;;;;;4954064;29;20592;-75
2021/07/28 14:02:56;;;;;;;3.10;2.80;;;;;;;;;;4954227;29;20225;-75
2021/07/28 14:05:42;;;;;;;4.53;2.90;;;;;;;;;;4952510;29;20689;-74
2021/07/28 14:08:28;;;;;;;3.50;3.20;;;;;;;;;;4952859;29;20584;-74
2021/07/28 14:11:13;;;;;;;3.57;3.27;;;;;;;;;;4952016;28;20257;-75
2021/07/28 14:13:58;;;;;;;3.23;3.00;;;;;;;;;;4952123;29;20381;-75
2021/07/28 14:16:45;;;;;;;3.03;2.83;;;;;;;;;;4951734;29;20220;-75
2021/07/28 14:19:31;;;;;;;3.15;2.53;;;;;;;;;;4950696;29;20436;-75
2021/07/28 14:22:16;;;;;;;4.43;2.60;;;;;;;;;;4953129;29;20344;-74
2021/07/28 14:25:01;;;;;;;4.10;2.20;;;;;;;;;;4952897;28;20212;-75
2021/07/28 14:27:46;;;;;;;2.57;2.00;;;;;;;;;;4953176;29;20255;-76
2021/07/28 14:30:31;;;;;;;4.37;2.23;;;;;;;;;;4979704;23;20251;-73
2021/07/28 14:33:17;;;;;;;2.33;2.13;;;;;;;;;;4972903;28;20287;-74
2021/07/28 14:36:02;;;;;;;2.40;2.20;;;;;;;;;;4970709;28;20291;-72
2021/07/28 14:38:47;;;;;;;2.43;2.17;;;;;;;;;;4972500;28;20236;-72
2021/07/28 14:41:32;;;;;;;4.03;2.40;;;;;;;;;;4972724;28;20371;-75
2021/07/28 14:44:17;;;;;;;2.33;2.10;;;;;;;;;;4972056;28;20348;-74
2021/07/28 14:47:02;;;;;;;2.83;2.63;;;;;;;;;;4953175;29;20212;-75
2021/07/28 14:49:48;;;;;;;2.73;2.53;;;;;;;;;;4953484;29;20229;-75
2021/07/28 14:52:33;;;;;;;5.23;3.03;;;;;;;;;;4963339;28;20235;-75
2021/07/28 14:55:18;;;;;;;2.90;2.70;;;;;;;;;;4972171;28;20216;-76
2021/07/28 14:58:03;;;;;;;3.07;2.70;;;;;;;;;;4971905;28;20224;-74
2021/07/28 15:00:48;;;;;;;3.13;2.60;;;;;;;;;;4972392;28;20323;-75
2021/07/28 15:03:33;;;;;;;2.87;2.67;;;;;;;;;;4971700;28;20248;-76
2021/07/28 15:06:19;;;;;;;3.30;2.97;;;;;;;;;;4970717;28;20298;-75
2021/07/28 15:09:04;;;;;;;3.83;3.00;;;;;;;;;;4972515;28;20275;-75
2021/07/28 15:11:49;;;;;;;3.53;2.97;;;;;;;;;;4972318;28;20274;-75
2021/07/28 15:14:35;;;;;;;2.97;2.70;;;;;;;;;;4971499;28;20392;-76
2021/07/28 15:17:20;;;;;;;3.30;2.97;;;;;;;;;;4971404;28;20211;-76
2021/07/28 15:20:05;;;;;;;3.10;2.90;;;;;;;;;;4968751;28;20534;-76
2021/07/28 15:22:52;;;;;;;3.00;2.80;;;;;;;;;;4967568;28;20215;-76
2021/07/28 15:25:37;;;;;;;4.50;3.03;;;;;;;;;;4960332;28;20211;-76
2021/07/28 15:28:21;;;;;;;5.50;3.00;;;;;;;;;;4953424;29;20208;-75
2021/07/28 15:31:06;;;;;;;5.43;2.93;;;;;;;;;;4955993;28;20239;-74
2021/07/28 15:33:51;;;;;;;4.87;2.83;;;;;;;;;;4967054;28;20207;-75
2021/07/28 15:36:36;;;;;;;5.63;2.90;;;;;;;;;;4964795;28;20302;-75
2021/07/28 15:39:45;;;;;;;6.07;2.90;;;;;;;;;;4956245;28;20307;-75
2021/07/28 15:42:33;;;;;;;6.43;3.60;;;;;;;;;;4952397;29;20216;-75
2021/07/28 15:45:18;;;;;;;7.20;3.77;;;;;;;;;;4952606;29;20569;-75
2021/07/28 15:48:04;;;;;;;4.10;3.40;;;;;;;;;;4958374;28;20617;-75
2021/07/28 15:50:49;;;;;;;5.33;4.00;;;;;;;;;;4955921;28;20317;-75
2021/07/28 15:53:34;;;;;;;5.77;3.53;;;;;;;;;;4952803;29;20287;-74
2021/07/28 15:56:19;;;;;;;4.40;3.07;;;;;;;;;;4951535;29;20208;-75
2021/07/28 15:59:06;;;;;;;6.10;3.60;;;;;;;;;;4958202;28;20224;-74
2021/07/28 16:01:51;;;;;;;6.27;3.90;;;;;;;;;;4969746;28;20231;-75
2021/07/28 16:04:36;;;;;;;6.37;3.70;;;;;;;;;;4970209;28;20204;-74
2021/07/28 16:07:21;;;;;;;4.60;3.47;;;;;;;;;;4970633;28;20332;-75
2021/07/28 16:10:06;;;;;;;3.83;3.30;;;;;;;;;;4970724;28;20212;-75
2021/07/28 16:12:51;;;;;;;5.67;3.90;;;;;;;;;;4971435;28;20294;-75
2021/07/28 16:15:37;;;;;;;5.37;3.60;;;;;;;;;;4971559;28;20203;-75
2021/07/28 16:18:33;;;;;;;5.07;3.50;;;;;;;;;;4969201;28;20724;-75
2021/07/28 16:21:18;;;;;;;5.80;3.50;;;;;;;;;;4967167;28;20735;-75
2021/07/28 16:24:04;;;;;;;5.00;3.87;;;;;;;;;;4971303;28;20665;-75
2021/07/28 16:26:49;;;;;;;5.67;3.77;;;;;;;;;;4952204;28;20298;-75
2021/07/28 16:29:34;;;;;;;8.23;3.63;;;;;;;;;;4952214;28;20446;-75